sensor_id;sensor_type;location;lat;lon;timestamp;pressure;altitude;pressure_sealevel;temperature;humidity
33280;BME280;20403;43.114;12.434;2023-02-01T00:00:17;99922.66;;;1.60;100.00
33280;BME280;20403;43.114;12.434;2023-02-01T00:02:43;99929.69;;;1.58;100.00
33280;BME280;20403;43.114;12.434;2023-02-01T00:05:09;99937.28;;;1.50;100.00
33280;BME280;20403;43.114;12.434;2023-02-01T00:07:36;99941.44;;;1.33;100.00
33280;BME280;20403;43.114;12.434;2023-02-01T00:10:02;99938.19;;;1.31;100.00
33280;BME280;20403;43.114;12.434;2023-02-01T00:12:29;99940.50;;;1.24;100.00
33280;BME280;20403;43.114;12.434;2023-02-01T00:14:54;99934.88;;;1.48;100.00
33280;BME280;20403;43.114;12.434;2023-02-01T00:17:19;99928.03;;;1.66;100.00
33280;BME280;20403;43.114;12.434;2023-02-01T00:19:45;99932.06;;;1.69;100.00
33280;BME280;20403;43.114;12.434;2023-02-01T00:22:10;99933.91;;;1.49;100.00
33280;BME280;20403;43.114;12.434;2023-02-01T00:24:35;99932.31;;;1.48;100.00
33280;BME280;20403;43.114;12.434;2023-02-01T00:27:01;99933.63;;;1.52;100.00
33280;BME280;20403;43.114;12.434;2023-02-01T00:29:26;99936.25;;;1.42;100.00
33280;BME280;20403;43.114;12.434;2023-02-01T00:31:52;99934.03;;;1.57;100.00
33280;BME280;20403;43.114;12.434;2023-02-01T00:34:18;99933.72;;;1.60;100.00
33280;BME280;20403;43.114;12.434;2023-02-01T00:36:44;99928.59;;;1.60;100.00
33280;BME280;20403;43.114;12.434;2023-02-01T00:39:10;99935.22;;;1.63;100.00
33280;BME280;20403;43.114;12.434;2023-02-01T00:41:36;99942.97;;;1.53;100.00
33280;BME280;20403;43.114;12.434;2023-02-01T00:44:02;99931.53;;;1.65;100.00
33280;BME280;20403;43.114;12.434;2023-02-01T00:46:28;99927.16;;;1.76;100.00
33280;BME280;20403;43.114;12.434;2023-02-01T00:48:53;99917.28;;;1.99;100.00
33280;BME280;20403;43.114;12.434;2023-02-01T00:51:21;99909.19;;;2.12;100.00
33280;BME280;20403;43.114;12.434;2023-02-01T00:53:47;99929.00;;;1.83;100.00
33280;BME280;20403;43.114;12.434;2023-02-01T00:56:13;99930.53;;;1.76;100.00
33280;BME280;20403;43.114;12.434;2023-02-01T00:58:38;99925.56;;;1.93;100.00
33280;BME280;20403;43.114;12.434;2023-02-01T01:01:09;99920.06;;;1.87;100.00
33280;BME280;20403;43.114;12.434;2023-02-01T01:03:38;99927.53;;;1.81;100.00
33280;BME280;20403;43.114;12.434;2023-02-01T01:06:15;99927.06;;;1.67;100.00
33280;BME280;20403;43.114;12.434;2023-02-01T01:08:41;99923.88;;;1.83;100.00
33280;BME280;20403;43.114;12.434;2023-02-01T01:11:09;99928.75;;;2.04;100.00
33280;BME280;20403;43.114;12.434;2023-02-01T01:13:36;99924.34;;;1.97;100.00
33280;BME280;20403;43.114;12.434;2023-02-01T01:16:03;99925.63;;;2.01;100.00
33280;BME280;20403;43.114;12.434;2023-02-01T01:18:30;99924.84;;;2.00;100.00
33280;BME280;20403;43.114;12.434;2023-02-01T01:20:56;99925.78;;;2.17;100.00
33280;BME280;20403;43.114;12.434;2023-02-01T01:23:22;99917.03;;;2.10;100.00
33280;BME280;20403;43.114;12.434;2023-02-01T01:25:47;99914.72;;;1.99;100.00
33280;BME280;20403;43.114;12.434;2023-02-01T01:28:13;99906.91;;;1.91;100.00
33280;BME280;20403;43.114;12.434;2023-02-01T01:30:38;99914.38;;;1.84;100.00
33280;BME280;20403;43.114;12.434;2023-02-01T01:33:03;99906.81;;;1.82;100.00
33280;BME280;20403;43.114;12.434;2023-02-01T01:35:30;99915.84;;;1.86;100.00
33280;BME280;20403;43.114;12.434;2023-02-01T01:37:56;99919.91;;;1.61;100.00
33280;BME280;20403;43.114;12.434;2023-02-01T01:40:22;99917.09;;;1.55;100.00
33280;BME280;20403;43.114;12.434;2023-02-01T01:42:48;99911.16;;;1.54;100.00
33280;BME280;20403;43.114;12.434;2023-02-01T01:47:52;99922.38;;;1.25;100.00
33280;BME280;20403;43.114;12.434;2023-02-01T01:50:20;99911.16;;;1.54;100.00
33280;BME280;20403;43.114;12.434;2023-02-01T01:52:50;99914.94;;;1.60;100.00
33280;BME280;20403;43.114;12.434;2023-02-01T01:55:18;99912.31;;;1.42;100.00
33280;BME280;20403;43.114;12.434;2023-02-01T01:57:50;99903.38;;;1.46;100.00
33280;BME280;20403;43.114;12.434;2023-02-01T02:00:19;99912.44;;;1.40;100.00
33280;BME280;20403;43.114;12.434;2023-02-01T02:02:51;99905.09;;;1.55;100.00
33280;BME280;20403;43.114;12.434;2023-02-01T02:05:19;99896.41;;;1.56;100.00
33280;BME280;20403;43.114;12.434;2023-02-01T02:07:47;99882.66;;;1.47;100.00
33280;BME280;20403;43.114;12.434;2023-02-01T02:10:15;99881.72;;;1.49;100.00
33280;BME280;20403;43.114;12.434;2023-02-01T02:12:42;99889.69;;;1.45;100.00
33280;BME280;20403;43.114;12.434;2023-02-01T02:15:10;99879.91;;;1.31;100.00
33280;BME280;20403;43.114;12.434;2023-02-01T02:42:14;99871.31;;;1.13;100.00
33280;BME280;20403;43.114;12.434;2023-02-01T02:48:01;99876.16;;;0.88;100.00
33280;BME280;20403;43.114;12.434;2023-02-01T02:50:41;99867.44;;;0.99;100.00
33280;BME280;20403;43.114;12.434;2023-02-01T02:56:21;99885.34;;;0.71;100.00
33280;BME280;20403;43.114;12.434;2023-02-01T02:59:07;99888.84;;;0.80;100.00
33280;BME280;20403;43.114;12.434;2023-02-01T03:01:53;99892.38;;;0.69;100.00
33280;BME280;20403;43.114;12.434;2023-02-01T03:04:37;99899.06;;;0.43;100.00
33280;BME280;20403;43.114;12.434;2023-02-01T03:10:18;99898.75;;;0.65;100.00
33280;BME280;20403;43.114;12.434;2023-02-01T03:12:49;99899.59;;;0.56;100.00
33280;BME280;20403;43.114;12.434;2023-02-01T03:15:24;99904.69;;;0.46;100.00
33280;BME280;20403;43.114;12.434;2023-02-01T03:17:53;99919.31;;;0.36;100.00
33280;BME280;20403;43.114;12.434;2023-02-01T03:20:21;99922.00;;;0.15;100.00
33280;BME280;20403;43.114;12.434;2023-02-01T03:22:48;99922.41;;;0.49;100.00
33280;BME280;20403;43.114;12.434;2023-02-01T03:25:19;99923.72;;;0.73;100.00
33280;BME280;20403;43.114;12.434;2023-02-01T03:27:53;99919.03;;;0.58;100.00
33280;BME280;20403;43.114;12.434;2023-02-01T03:32:51;99910.78;;;0.45;100.00
33280;BME280;20403;43.114;12.434;2023-02-01T03:35:33;99905.94;;;0.42;100.00
33280;BME280;20403;43.114;12.434;2023-02-01T03:38:24;99909.72;;;0.48;100.00
33280;BME280;20403;43.114;12.434;2023-02-01T03:43:29;99898.78;;;0.36;100.00
33280;BME280;20403;43.114;12.434;2023-02-01T03:46:01;99897.56;;;0.20;100.00
33280;BME280;20403;43.114;12.434;2023-02-01T03:48:28;99894.06;;;0.12;100.00
33280;BME280;20403;43.114;12.434;2023-02-01T03:50:58;99900.13;;;0.11;100.00
33280;BME280;20403;43.114;12.434;2023-02-01T03:53:26;99906.22;;;0.00;100.00
33280;BME280;20403;43.114;12.434;2023-02-01T03:55:53;99907.97;;;0.29;100.00
33280;BME280;20403;43.114;12.434;2023-02-01T03:58:21;99911.34;;;0.49;100.00
33280;BME280;20403;43.114;12.434;2023-02-01T04:00:55;99918.47;;;0.65;100.00
33280;BME280;20403;43.114;12.434;2023-02-01T04:03:21;99914.69;;;0.59;100.00
33280;BME280;20403;43.114;12.434;2023-02-01T04:05:48;99915.22;;;0.72;100.00
33280;BME280;20403;43.114;12.434;2023-02-01T04:08:13;99910.63;;;0.76;100.00
33280;BME280;20403;43.114;12.434;2023-02-01T04:10:39;99906.88;;;0.60;100.00
33280;BME280;20403;43.114;12.434;2023-02-01T04:13:04;99904.44;;;0.59;100.00
33280;BME280;20403;43.114;12.434;2023-02-01T04:15:30;99907.69;;;0.51;100.00
33280;BME280;20403;43.114;12.434;2023-02-01T04:17:55;99909.31;;;0.33;100.00
33280;BME280;20403;43.114;12.434;2023-02-01T04:20:20;99905.91;;;0.32;100.00
33280;BME280;20403;43.114;12.434;2023-02-01T04:22:46;99906.47;;;0.26;100.00
33280;BME280;20403;43.114;12.434;2023-02-01T04:25:11;99918.06;;;0.11;100.00
33280;BME280;20403;43.114;12.434;2023-02-01T04:27:36;99925.78;;;0.30;100.00
33280;BME280;20403;43.114;12.434;2023-02-01T04:30:03;99922.41;;;0.30;100.00
33280;BME280;20403;43.114;12.434;2023-02-01T04:32:29;99911.34;;;0.29;100.00
33280;BME280;20403;43.114;12.434;2023-02-01T04:34:54;99918.09;;;0.40;100.00
33280;BME280;20403;43.114;12.434;2023-02-01T04:37:20;99920.09;;;0.27;100.00
33280;BME280;20403;43.114;12.434;2023-02-01T04:39:45;99917.53;;;0.07;100.00
33280;BME280;20403;43.114;12.434;2023-02-01T04:42:12;99907.94;;;0.09;100.00
33280;BME280;20403;43.114;12.434;2023-02-01T04:44:37;99919.03;;;0.10;100.00
33280;BME280;20403;43.114;12.434;2023-02-01T04:47:04;99910.25;;;0.12;100.00
33280;BME280;20403;43.114;12.434;2023-02-01T04:49:30;99919.94;;;-0.01;100.00
33280;BME280;20403;43.114;12.434;2023-02-01T04:51:56;99914.53;;;-0.08;100.00
33280;BME280;20403;43.114;12.434;2023-02-01T04:54:21;99919.66;;;-0.08;100.00
33280;BME280;20403;43.114;12.434;2023-02-01T04:56:46;99918.47;;;0.16;100.00
33280;BME280;20403;43.114;12.434;2023-02-01T04:59:12;99918.91;;;0.31;100.00
33280;BME280;20403;43.114;12.434;2023-02-01T05:01:37;99919.16;;;0.28;100.00
33280;BME280;20403;43.114;12.434;2023-02-01T05:04:03;99923.06;;;0.22;100.00
33280;BME280;20403;43.114;12.434;2023-02-01T05:06:28;99925.13;;;0.38;100.00
33280;BME280;20403;43.114;12.434;2023-02-01T05:08:54;99920.66;;;0.30;100.00
33280;BME280;20403;43.114;12.434;2023-02-01T05:11:19;99924.44;;;0.36;100.00
33280;BME280;20403;43.114;12.434;2023-02-01T05:14:03;99923.22;;;0.30;100.00
33280;BME280;20403;43.114;12.434;2023-02-01T05:16:28;99917.00;;;0.04;100.00
33280;BME280;20403;43.114;12.434;2023-02-01T05:18:54;99924.97;;;0.20;100.00
33280;BME280;20403;43.114;12.434;2023-02-01T05:21:20;99915.78;;;0.17;100.00
33280;BME280;20403;43.114;12.434;2023-02-01T05:23:46;99921.16;;;-0.05;100.00
33280;BME280;20403;43.114;12.434;2023-02-01T05:26:30;99916.72;;;0.07;100.00
33280;BME280;20403;43.114;12.434;2023-02-01T05:28:55;99926.31;;;0.14;100.00
33280;BME280;20403;43.114;12.434;2023-02-01T05:31:21;99924.78;;;-0.08;100.00
33280;BME280;20403;43.114;12.434;2023-02-01T05:33:47;99931.69;;;0.11;100.00
33280;BME280;20403;43.114;12.434;2023-02-01T05:36:13;99928.44;;;0.09;100.00
33280;BME280;20403;43.114;12.434;2023-02-01T05:38:38;99925.47;;;0.04;100.00
33280;BME280;20403;43.114;12.434;2023-02-01T05:41:04;99923.31;;;-0.01;100.00
33280;BME280;20403;43.114;12.434;2023-02-01T05:43:29;99926.03;;;0.17;100.00
33280;BME280;20403;43.114;12.434;2023-02-01T05:45:54;99930.25;;;0.28;100.00
33280;BME280;20403;43.114;12.434;2023-02-01T05:48:20;99927.25;;;0.23;100.00
33280;BME280;20403;43.114;12.434;2023-02-01T05:50:45;99940.22;;;0.12;100.00
33280;BME280;20403;43.114;12.434;2023-02-01T05:53:11;99945.63;;;0.38;100.00
33280;BME280;20403;43.114;12.434;2023-02-01T05:55:37;99941.59;;;0.26;100.00
33280;BME280;20403;43.114;12.434;2023-02-01T05:58:03;99945.34;;;0.31;100.00
33280;BME280;20403;43.114;12.434;2023-02-01T06:00:28;99946.69;;;0.06;100.00
33280;BME280;20403;43.114;12.434;2023-02-01T06:02:54;99950.31;;;0.04;100.00
33280;BME280;20403;43.114;12.434;2023-02-01T06:05:19;99956.81;;;-0.02;100.00
33280;BME280;20403;43.114;12.434;2023-02-01T06:07:45;99954.53;;;0.14;100.00
33280;BME280;20403;43.114;12.434;2023-02-01T06:10:10;99951.97;;;0.14;100.00
33280;BME280;20403;43.114;12.434;2023-02-01T06:12:36;99965.28;;;-0.11;100.00
33280;BME280;20403;43.114;12.434;2023-02-01T06:15:01;99972.13;;;-0.22;100.00
33280;BME280;20403;43.114;12.434;2023-02-01T06:17:27;99968.22;;;-0.16;100.00
33280;BME280;20403;43.114;12.434;2023-02-01T06:19:52;99970.94;;;-0.08;100.00
33280;BME280;20403;43.114;12.434;2023-02-01T06:22:18;99962.47;;;0.11;100.00
33280;BME280;20403;43.114;12.434;2023-02-01T06:24:43;99972.44;;;0.05;100.00
33280;BME280;20403;43.114;12.434;2023-02-01T06:27:09;99973.28;;;0.15;100.00
33280;BME280;20403;43.114;12.434;2023-02-01T06:29:34;99973.97;;;0.17;100.00
33280;BME280;20403;43.114;12.434;2023-02-01T06:32:00;99976.63;;;0.06;100.00
33280;BME280;20403;43.114;12.434;2023-02-01T06:34:25;99976.53;;;0.17;100.00
33280;BME280;20403;43.114;12.434;2023-02-01T06:36:51;99981.09;;;0.04;100.00
33280;BME280;20403;43.114;12.434;2023-02-01T06:39:16;99980.97;;;0.05;100.00
33280;BME280;20403;43.114;12.434;2023-02-01T06:41:45;99969.47;;;0.09;100.00
33280;BME280;20403;43.114;12.434;2023-02-01T06:44:11;99977.72;;;0.03;100.00
33280;BME280;20403;43.114;12.434;2023-02-01T06:46:36;99979.59;;;0.01;100.00
33280;BME280;20403;43.114;12.434;2023-02-01T06:49:02;99979.19;;;0.06;100.00
33280;BME280;20403;43.114;12.434;2023-02-01T06:51:28;99967.19;;;0.06;100.00
33280;BME280;20403;43.114;12.434;2023-02-01T06:53:55;99961.78;;;0.09;100.00
33280;BME280;20403;43.114;12.434;2023-02-01T06:56:20;99966.00;;;0.10;100.00
33280;BME280;20403;43.114;12.434;2023-02-01T06:58:46;99959.09;;;0.01;100.00
33280;BME280;20403;43.114;12.434;2023-02-01T07:01:12;99966.28;;;0.17;100.00
33280;BME280;20403;43.114;12.434;2023-02-01T07:03:38;99966.44;;;0.35;100.00
33280;BME280;20403;43.114;12.434;2023-02-01T07:06:04;99965.63;;;0.54;100.00
33280;BME280;20403;43.114;12.434;2023-02-01T07:08:31;99976.53;;;0.85;100.00
33280;BME280;20403;43.114;12.434;2023-02-01T07:11:01;99980.31;;;0.91;100.00
33280;BME280;20403;43.114;12.434;2023-02-01T07:13:27;99973.56;;;0.90;100.00
33280;BME280;20403;43.114;12.434;2023-02-01T07:15:52;99981.09;;;1.20;100.00
33280;BME280;20403;43.114;12.434;2023-02-01T07:18:17;99981.03;;;1.40;100.00
33280;BME280;20403;43.114;12.434;2023-02-01T07:20:43;99977.25;;;1.34;100.00
33280;BME280;20403;43.114;12.434;2023-02-01T07:23:14;99974.22;;;1.49;100.00
33280;BME280;20403;43.114;12.434;2023-02-01T07:25:40;99972.00;;;1.63;100.00
33280;BME280;20403;43.114;12.434;2023-02-01T07:28:05;99975.06;;;1.77;100.00
33280;BME280;20403;43.114;12.434;2023-02-01T07:30:30;99980.25;;;1.95;100.00
33280;BME280;20403;43.114;12.434;2023-02-01T07:32:56;99980.91;;;1.97;100.00
33280;BME280;20403;43.114;12.434;2023-02-01T07:35:24;99976.66;;;2.05;100.00
33280;BME280;20403;43.114;12.434;2023-02-01T07:37:49;99969.59;;;2.07;100.00
33280;BME280;20403;43.114;12.434;2023-02-01T07:40:15;99977.25;;;2.17;100.00
33280;BME280;20403;43.114;12.434;2023-02-01T07:42:40;99980.41;;;2.11;100.00
33280;BME280;20403;43.114;12.434;2023-02-01T07:45:06;99984.84;;;2.19;100.00
33280;BME280;20403;43.114;12.434;2023-02-01T07:47:32;99981.72;;;1.97;100.00
33280;BME280;20403;43.114;12.434;2023-02-01T07:49:57;99973.13;;;2.06;100.00
33280;BME280;20403;43.114;12.434;2023-02-01T07:52:23;99982.56;;;2.16;100.00
33280;BME280;20403;43.114;12.434;2023-02-01T07:54:48;99994.31;;;2.18;100.00
33280;BME280;20403;43.114;12.434;2023-02-01T07:57:14;99985.97;;;2.34;100.00
33280;BME280;20403;43.114;12.434;2023-02-01T07:59:39;99976.13;;;2.47;100.00
33280;BME280;20403;43.114;12.434;2023-02-01T08:02:24;99986.78;;;2.52;100.00
33280;BME280;20403;43.114;12.434;2023-02-01T08:04:50;99989.88;;;2.38;100.00
33280;BME280;20403;43.114;12.434;2023-02-01T08:07:15;99981.63;;;2.52;100.00
33280;BME280;20403;43.114;12.434;2023-02-01T08:09:40;99980.38;;;2.57;100.00
33280;BME280;20403;43.114;12.434;2023-02-01T08:12:06;99972.34;;;2.60;100.00
33280;BME280;20403;43.114;12.434;2023-02-01T08:14:31;99968.22;;;2.67;100.00
33280;BME280;20403;43.114;12.434;2023-02-01T08:16:57;99973.19;;;2.86;100.00
33280;BME280;20403;43.114;12.434;2023-02-01T08:19:22;99986.81;;;2.97;100.00
33280;BME280;20403;43.114;12.434;2023-02-01T08:21:47;99988.28;;;2.99;100.00
33280;BME280;20403;43.114;12.434;2023-02-01T08:24:14;99987.97;;;3.02;100.00
33280;BME280;20403;43.114;12.434;2023-02-01T08:26:39;99984.81;;;3.16;100.00
33280;BME280;20403;43.114;12.434;2023-02-01T08:29:07;99996.19;;;3.24;100.00
33280;BME280;20403;43.114;12.434;2023-02-01T08:31:33;99992.31;;;3.28;100.00
33280;BME280;20403;43.114;12.434;2023-02-01T08:34:00;99990.63;;;3.19;100.00
33280;BME280;20403;43.114;12.434;2023-02-01T08:36:28;99989.69;;;3.20;100.00
33280;BME280;20403;43.114;12.434;2023-02-01T08:38:55;99986.59;;;3.16;100.00
33280;BME280;20403;43.114;12.434;2023-02-01T08:41:23;99989.78;;;3.36;100.00
33280;BME280;20403;43.114;12.434;2023-02-01T08:43:48;99982.91;;;3.45;100.00
33280;BME280;20403;43.114;12.434;2023-02-01T08:46:14;99983.22;;;3.42;100.00
33280;BME280;20403;43.114;12.434;2023-02-01T08:48:40;99994.19;;;3.44;100.00
33280;BME280;20403;43.114;12.434;2023-02-01T08:51:08;99979.72;;;3.51;100.00
33280;BME280;20403;43.114;12.434;2023-02-01T08:53:35;99978.78;;;3.60;100.00
33280;BME280;20403;43.114;12.434;2023-02-01T08:56:01;99984.53;;;3.80;100.00
33280;BME280;20403;43.114;12.434;2023-02-01T08:58:27;99972.56;;;3.71;100.00
33280;BME280;20403;43.114;12.434;2023-02-01T09:00:52;99983.25;;;3.84;100.00
33280;BME280;20403;43.114;12.434;2023-02-01T09:03:18;99986.97;;;3.90;100.00
33280;BME280;20403;43.114;12.434;2023-02-01T09:05:43;99987.28;;;3.87;100.00
33280;BME280;20403;43.114;12.434;2023-02-01T09:08:10;99988.75;;;3.89;100.00
33280;BME280;20403;43.114;12.434;2023-02-01T09:10:37;99988.88;;;3.88;100.00
33280;BME280;20403;43.114;12.434;2023-02-01T09:13:03;99991.19;;;3.99;100.00
33280;BME280;20403;43.114;12.434;2023-02-01T09:15:28;99991.22;;;4.07;100.00
33280;BME280;20403;43.114;12.434;2023-02-01T09:17:53;99981.72;;;4.08;100.00
33280;BME280;20403;43.114;12.434;2023-02-01T09:20:19;99984.16;;;4.17;100.00
33280;BME280;20403;43.114;12.434;2023-02-01T09:22:45;99979.66;;;4.28;100.00
33280;BME280;20403;43.114;12.434;2023-02-01T09:25:11;99982.72;;;4.23;100.00
33280;BME280;20403;43.114;12.434;2023-02-01T09:27:36;99985.31;;;4.31;100.00
33280;BME280;20403;43.114;12.434;2023-02-01T09:30:03;99987.09;;;4.31;100.00
33280;BME280;20403;43.114;12.434;2023-02-01T09:32:29;99986.59;;;4.35;100.00
33280;BME280;20403;43.114;12.434;2023-02-01T09:34:55;99979.50;;;4.46;100.00
33280;BME280;20403;43.114;12.434;2023-02-01T09:37:20;99981.13;;;4.55;100.00
33280;BME280;20403;43.114;12.434;2023-02-01T09:39:46;99975.84;;;4.65;100.00
33280;BME280;20403;43.114;12.434;2023-02-01T09:48:05;99976.63;;;4.81;100.00
33280;BME280;20403;43.114;12.434;2023-02-01T09:50:40;99968.06;;;4.89;100.00
33280;BME280;20403;43.114;12.434;2023-02-01T09:55:39;99976.78;;;4.88;100.00
33280;BME280;20403;43.114;12.434;2023-02-01T10:00:38;99980.97;;;4.97;100.00
33280;BME280;20403;43.114;12.434;2023-02-01T10:03:05;99972.72;;;5.02;100.00
33280;BME280;20403;43.114;12.434;2023-02-01T10:08:25;99985.69;;;4.86;100.00
33280;BME280;20403;43.114;12.434;2023-02-01T10:16:51;99963.03;;;5.04;100.00
33280;BME280;20403;43.114;12.434;2023-02-01T10:22:01;99955.91;;;5.14;100.00
33280;BME280;20403;43.114;12.434;2023-02-01T10:29:41;99943.72;;;5.39;100.00
33280;BME280;20403;43.114;12.434;2023-02-01T10:32:13;99934.31;;;5.46;100.00
33280;BME280;20403;43.114;12.434;2023-02-01T10:34:39;99935.88;;;5.64;100.00
33280;BME280;20403;43.114;12.434;2023-02-01T10:37:11;99929.88;;;5.63;100.00
33280;BME280;20403;43.114;12.434;2023-02-01T10:39:44;99931.56;;;5.48;100.00
33280;BME280;20403;43.114;12.434;2023-02-01T10:42:09;99928.06;;;5.33;100.00
33280;BME280;20403;43.114;12.434;2023-02-01T10:44:40;99906.38;;;5.42;100.00
33280;BME280;20403;43.114;12.434;2023-02-01T10:47:10;99909.88;;;5.57;100.00
33280;BME280;20403;43.114;12.434;2023-02-01T10:49:55;99901.31;;;5.80;100.00
33280;BME280;20403;43.114;12.434;2023-02-01T10:52:30;99900.25;;;6.05;100.00
33280;BME280;20403;43.114;12.434;2023-02-01T10:57:59;99901.59;;;6.39;100.00
33280;BME280;20403;43.114;12.434;2023-02-01T11:00:25;99898.78;;;6.49;100.00
33280;BME280;20403;43.114;12.434;2023-02-01T11:02:51;99897.75;;;6.73;100.00
33280;BME280;20403;43.114;12.434;2023-02-01T11:05:17;99896.53;;;6.99;100.00
33280;BME280;20403;43.114;12.434;2023-02-01T11:07:49;99886.50;;;7.40;100.00
33280;BME280;20403;43.114;12.434;2023-02-01T11:13:02;99877.69;;;8.14;100.00
33280;BME280;20403;43.114;12.434;2023-02-01T11:15:27;99874.84;;;8.30;100.00
33280;BME280;20403;43.114;12.434;2023-02-01T11:17:53;99868.28;;;8.34;95.15
33280;BME280;20403;43.114;12.434;2023-02-01T11:20:39;99859.72;;;8.62;100.00
33280;BME280;20403;43.114;12.434;2023-02-01T11:23:15;99860.91;;;8.94;100.00
33280;BME280;20403;43.114;12.434;2023-02-01T11:25:57;99860.56;;;9.04;100.00
33280;BME280;20403;43.114;12.434;2023-02-01T11:28:26;99854.75;;;9.02;87.79
33280;BME280;20403;43.114;12.434;2023-02-01T11:30:56;99850.56;;;8.73;92.33
33280;BME280;20403;43.114;12.434;2023-02-01T11:33:31;99852.25;;;8.87;95.87
33280;BME280;20403;43.114;12.434;2023-02-01T11:36:05;99841.16;;;9.07;98.47
33280;BME280;20403;43.114;12.434;2023-02-01T11:38:33;99828.00;;;9.21;99.57
33280;BME280;20403;43.114;12.434;2023-02-01T11:41:21;99822.19;;;9.19;93.33
33280;BME280;20403;43.114;12.434;2023-02-01T11:44:20;99824.09;;;8.97;92.89
33280;BME280;20403;43.114;12.434;2023-02-01T11:46:45;99816.34;;;9.04;92.26
33280;BME280;20403;43.114;12.434;2023-02-01T11:49:26;99817.00;;;9.26;93.75
33280;BME280;20403;43.114;12.434;2023-02-01T11:57:39;99802.91;;;9.68;94.02
33280;BME280;20403;43.114;12.434;2023-02-01T12:14:06;99758.00;;;9.46;100.00
33280;BME280;20403;43.114;12.434;2023-02-01T12:30:32;99750.13;;;10.66;100.00
33280;BME280;20403;43.114;12.434;2023-02-01T12:44:00;99736.31;;;11.43;91.56
33280;BME280;20403;43.114;12.434;2023-02-01T12:46:51;99730.00;;;11.50;94.84
33280;BME280;20403;43.114;12.434;2023-02-01T12:49:53;99713.31;;;11.58;88.74
33280;BME280;20403;43.114;12.434;2023-02-01T12:52:23;99702.84;;;11.58;91.25
33280;BME280;20403;43.114;12.434;2023-02-01T12:55:02;99704.94;;;11.74;85.25
33280;BME280;20403;43.114;12.434;2023-02-01T12:57:40;99704.63;;;11.83;83.18
33280;BME280;20403;43.114;12.434;2023-02-01T13:03:14;99700.59;;;12.12;89.50
33280;BME280;20403;43.114;12.434;2023-02-01T13:05:53;99697.53;;;12.15;82.53
33280;BME280;20403;43.114;12.434;2023-02-01T13:08:25;99694.59;;;12.30;85.52
33280;BME280;20403;43.114;12.434;2023-02-01T13:11:07;99688.84;;;12.39;81.21
33280;BME280;20403;43.114;12.434;2023-02-01T13:16:23;99692.81;;;12.24;81.83
33280;BME280;20403;43.114;12.434;2023-02-01T13:18:55;99694.59;;;12.30;80.13
33280;BME280;20403;43.114;12.434;2023-02-01T13:21:27;99690.53;;;12.34;81.00
33280;BME280;20403;43.114;12.434;2023-02-01T13:23:55;99699.72;;;12.00;85.02
33280;BME280;20403;43.114;12.434;2023-02-01T13:26:21;99700.25;;;11.58;87.56
33280;BME280;20403;43.114;12.434;2023-02-01T13:31:41;99706.50;;;11.25;95.83
33280;BME280;20403;43.114;12.434;2023-02-01T13:37:15;99713.69;;;11.30;96.05
33280;BME280;20403;43.114;12.434;2023-02-01T13:49:42;99697.00;;;11.31;100.00
33280;BME280;20403;43.114;12.434;2023-02-01T13:52:25;99689.50;;;11.41;100.00
33280;BME280;20403;43.114;12.434;2023-02-01T13:55:01;99687.16;;;11.33;100.00
33280;BME280;20403;43.114;12.434;2023-02-01T13:57:46;99683.06;;;11.19;100.00
33280;BME280;20403;43.114;12.434;2023-02-01T14:10:55;99693.50;;;10.80;100.00
33280;BME280;20403;43.114;12.434;2023-02-01T14:13:40;99695.06;;;10.81;100.00
33280;BME280;20403;43.114;12.434;2023-02-01T14:23:42;99707.31;;;10.81;100.00
33280;BME280;20403;43.114;12.434;2023-02-01T14:26:45;99712.53;;;10.81;100.00
33280;BME280;20403;43.114;12.434;2023-02-01T14:32:21;99700.91;;;10.77;100.00
33280;BME280;20403;43.114;12.434;2023-02-01T14:50:31;99702.44;;;10.46;100.00
33280;BME280;20403;43.114;12.434;2023-02-01T14:55:40;99701.50;;;10.34;100.00
33280;BME280;20403;43.114;12.434;2023-02-01T14:58:35;99703.31;;;10.33;100.00
33280;BME280;20403;43.114;12.434;2023-02-01T15:06:33;99685.22;;;10.25;100.00
33280;BME280;20403;43.114;12.434;2023-02-01T15:09:07;99694.88;;;10.18;100.00
33280;BME280;20403;43.114;12.434;2023-02-01T15:12:09;99693.91;;;10.12;100.00
33280;BME280;20403;43.114;12.434;2023-02-01T15:14:45;99692.72;;;9.95;100.00
33280;BME280;20403;43.114;12.434;2023-02-01T15:17:28;99693.31;;;9.83;100.00
33280;BME280;20403;43.114;12.434;2023-02-01T15:19:59;99689.91;;;9.63;100.00
33280;BME280;20403;43.114;12.434;2023-02-01T15:22:27;99698.72;;;9.49;100.00
33280;BME280;20403;43.114;12.434;2023-02-01T15:24:58;99700.72;;;9.40;100.00
33280;BME280;20403;43.114;12.434;2023-02-01T15:27:25;99701.72;;;9.32;100.00
33280;BME280;20403;43.114;12.434;2023-02-01T15:29:51;99705.94;;;9.27;100.00
33280;BME280;20403;43.114;12.434;2023-02-01T15:32:34;99704.09;;;9.14;100.00
33280;BME280;20403;43.114;12.434;2023-02-01T15:35:00;99708.06;;;9.03;100.00
33280;BME280;20403;43.114;12.434;2023-02-01T15:37:26;99714.00;;;8.83;100.00
33280;BME280;20403;43.114;12.434;2023-02-01T15:42:57;99720.31;;;8.61;100.00
33280;BME280;20403;43.114;12.434;2023-02-01T15:45:29;99728.47;;;8.51;100.00
33280;BME280;20403;43.114;12.434;2023-02-01T15:47:57;99725.25;;;8.49;100.00
33280;BME280;20403;43.114;12.434;2023-02-01T15:50:24;99724.31;;;8.29;100.00
33280;BME280;20403;43.114;12.434;2023-02-01T15:52:51;99732.91;;;8.29;100.00
33280;BME280;20403;43.114;12.434;2023-02-01T15:55:20;99729.50;;;8.29;100.00
33280;BME280;20403;43.114;12.434;2023-02-01T15:57:48;99735.09;;;8.26;100.00
33280;BME280;20403;43.114;12.434;2023-02-01T16:00:26;99739.53;;;8.32;100.00
33280;BME280;20403;43.114;12.434;2023-02-01T16:06:08;99750.69;;;8.26;100.00
33280;BME280;20403;43.114;12.434;2023-02-01T16:08:35;99744.91;;;8.30;100.00
33280;BME280;20403;43.114;12.434;2023-02-01T16:13:33;99759.63;;;8.16;100.00